sensor_id;sensor_type;location;lat;lon;timestamp;pressure;altitude;pressure_sealevel;temperature;humidity
34674;BME280;20879;55.668;37.858;2023-03-18T00:00:03;101440.28;;;-3.09;53.61
34674;BME280;20879;55.668;37.858;2023-03-18T00:02:36;101448.19;;;-3.05;53.79
34674;BME280;20879;55.668;37.858;2023-03-18T00:05:07;101451.88;;;-3.13;54.27
34674;BME280;20879;55.668;37.858;2023-03-18T00:07:37;101456.13;;;-3.00;53.41
34674;BME280;20879;55.668;37.858;2023-03-18T00:10:14;101452.84;;;-3.11;54.21
34674;BME280;20879;55.668;37.858;2023-03-18T00:12:43;101460.59;;;-3.21;54.61
34674;BME280;20879;55.668;37.858;2023-03-18T00:15:14;101446.94;;;-3.23;54.88
34674;BME280;20879;55.668;37.858;2023-03-18T00:17:44;101451.38;;;-3.33;54.37
34674;BME280;20879;55.668;37.858;2023-03-18T00:20:19;101448.69;;;-3.22;54.47
34674;BME280;20879;55.668;37.858;2023-03-18T00:23:16;101466.41;;;-3.22;54.83
34674;BME280;20879;55.668;37.858;2023-03-18T00:25:47;101465.44;;;-3.24;54.44
34674;BME280;20879;55.668;37.858;2023-03-18T00:28:16;101459.75;;;-3.34;54.51
34674;BME280;20879;55.668;37.858;2023-03-18T00:30:45;101453.69;;;-3.36;54.71
34674;BME280;20879;55.668;37.858;2023-03-18T00:33:15;101466.81;;;-3.41;55.87
34674;BME280;20879;55.668;37.858;2023-03-18T00:35:46;101433.59;;;-3.58;55.41
34674;BME280;20879;55.668;37.858;2023-03-18T00:38:17;101475.06;;;-3.32;54.99
34674;BME280;20879;55.668;37.858;2023-03-18T00:40:52;101477.81;;;-3.29;54.80
34674;BME280;20879;55.668;37.858;2023-03-18T00:43:34;101473.16;;;-3.23;54.89
34674;BME280;20879;55.668;37.858;2023-03-18T00:46:12;101468.34;;;-3.31;54.94
34674;BME280;20879;55.668;37.858;2023-03-18T00:48:47;101458.56;;;-3.39;55.50
34674;BME280;20879;55.668;37.858;2023-03-18T00:51:30;101477.59;;;-3.32;55.36
34674;BME280;20879;55.668;37.858;2023-03-18T00:54:01;101479.38;;;-3.43;55.73
34674;BME280;20879;55.668;37.858;2023-03-18T00:56:35;101485.13;;;-3.45;56.23
34674;BME280;20879;55.668;37.858;2023-03-18T00:59:05;101483.81;;;-3.64;56.94
34674;BME280;20879;55.668;37.858;2023-03-18T01:01:45;101484.47;;;-3.66;57.06
34674;BME280;20879;55.668;37.858;2023-03-18T01:04:15;101475.69;;;-3.72;57.02
34674;BME280;20879;55.668;37.858;2023-03-18T01:06:50;101490.88;;;-3.60;57.04
34674;BME280;20879;55.668;37.858;2023-03-18T01:09:19;101498.13;;;-3.53;56.54
34674;BME280;20879;55.668;37.858;2023-03-18T01:11:56;101488.22;;;-3.49;56.51
34674;BME280;20879;55.668;37.858;2023-03-18T01:14:30;101502.84;;;-3.45;56.29
34674;BME280;20879;55.668;37.858;2023-03-18T01:17:00;101500.09;;;-3.60;56.39
34674;BME280;20879;55.668;37.858;2023-03-18T01:19:35;101499.34;;;-3.71;57.56
34674;BME280;20879;55.668;37.858;2023-03-18T01:22:05;101510.34;;;-3.59;56.68
34674;BME280;20879;55.668;37.858;2023-03-18T01:24:40;101514.28;;;-3.51;56.30
34674;BME280;20879;55.668;37.858;2023-03-18T01:27:13;101455.56;;;-3.82;56.70
34674;BME280;20879;55.668;37.858;2023-03-18T01:29:45;101515.75;;;-3.54;56.74
34674;BME280;20879;55.668;37.858;2023-03-18T01:32:19;101529.72;;;-3.47;56.79
34674;BME280;20879;55.668;37.858;2023-03-18T01:34:55;101525.88;;;-3.54;56.88
34674;BME280;20879;55.668;37.858;2023-03-18T01:37:30;101518.19;;;-3.56;56.44
34674;BME280;20879;55.668;37.858;2023-03-18T01:40:14;101531.47;;;-3.46;56.70
34674;BME280;20879;55.668;37.858;2023-03-18T01:42:56;101528.06;;;-3.59;57.53
34674;BME280;20879;55.668;37.858;2023-03-18T01:45:30;101535.09;;;-3.55;56.83
34674;BME280;20879;55.668;37.858;2023-03-18T01:48:01;101537.53;;;-3.56;57.41
34674;BME280;20879;55.668;37.858;2023-03-18T01:50:36;101512.44;;;-3.77;57.34
34674;BME280;20879;55.668;37.858;2023-03-18T01:53:09;101544.81;;;-3.61;57.75
34674;BME280;20879;55.668;37.858;2023-03-18T01:55:40;101549.31;;;-3.57;57.11
34674;BME280;20879;55.668;37.858;2023-03-18T01:58:14;101544.25;;;-3.57;57.04
34674;BME280;20879;55.668;37.858;2023-03-18T02:00:50;101541.94;;;-3.65;58.12
34674;BME280;20879;55.668;37.858;2023-03-18T02:03:28;101542.06;;;-3.64;57.29
34674;BME280;20879;55.668;37.858;2023-03-18T02:05:57;101542.06;;;-3.64;57.81
34674;BME280;20879;55.668;37.858;2023-03-18T02:08:27;101547.25;;;-3.74;58.29
34674;BME280;20879;55.668;37.858;2023-03-18T02:11:02;101541.97;;;-3.77;58.24
34674;BME280;20879;55.668;37.858;2023-03-18T02:13:38;101548.44;;;-3.81;58.46
34674;BME280;20879;55.668;37.858;2023-03-18T02:16:11;101555.16;;;-3.81;58.44
34674;BME280;20879;55.668;37.858;2023-03-18T02:18:48;101547.88;;;-3.89;58.17
34674;BME280;20879;55.668;37.858;2023-03-18T02:21:34;101568.13;;;-3.89;58.61
34674;BME280;20879;55.668;37.858;2023-03-18T02:24:17;101564.28;;;-3.95;58.90
34674;BME280;20879;55.668;37.858;2023-03-18T02:26:59;101553.38;;;-4.06;58.97
34674;BME280;20879;55.668;37.858;2023-03-18T02:29:41;101569.88;;;-4.11;59.92
34674;BME280;20879;55.668;37.858;2023-03-18T02:32:16;101570.75;;;-4.11;59.65
34674;BME280;20879;55.668;37.858;2023-03-18T02:34:51;101568.66;;;-4.16;59.96
34674;BME280;20879;55.668;37.858;2023-03-18T02:37:21;101584.16;;;-4.12;59.71
34674;BME280;20879;55.668;37.858;2023-03-18T02:39:51;101588.13;;;-4.15;59.64
34674;BME280;20879;55.668;37.858;2023-03-18T02:42:28;101580.63;;;-4.26;60.52
34674;BME280;20879;55.668;37.858;2023-03-18T02:45:01;101576.41;;;-4.37;60.79
34674;BME280;20879;55.668;37.858;2023-03-18T02:47:51;101572.41;;;-4.45;61.38
34674;BME280;20879;55.668;37.858;2023-03-18T02:50:22;101599.81;;;-4.40;61.21
34674;BME280;20879;55.668;37.858;2023-03-18T02:52:51;101603.25;;;-4.39;61.44
34674;BME280;20879;55.668;37.858;2023-03-18T02:55:26;101603.00;;;-4.42;61.53
34674;BME280;20879;55.668;37.858;2023-03-18T02:57:55;101606.53;;;-4.40;61.16
34674;BME280;20879;55.668;37.858;2023-03-18T03:00:27;101599.66;;;-4.53;61.85
34674;BME280;20879;55.668;37.858;2023-03-18T03:03:01;101612.22;;;-4.43;61.40
34674;BME280;20879;55.668;37.858;2023-03-18T03:05:33;101612.34;;;-4.41;61.34
34674;BME280;20879;55.668;37.858;2023-03-18T03:08:04;101617.69;;;-4.48;61.51
34674;BME280;20879;55.668;37.858;2023-03-18T03:10:38;101617.00;;;-4.58;62.25
34674;BME280;20879;55.668;37.858;2023-03-18T03:13:07;101620.53;;;-4.56;62.20
34674;BME280;20879;55.668;37.858;2023-03-18T03:15:41;101629.88;;;-4.54;62.30
34674;BME280;20879;55.668;37.858;2023-03-18T03:18:12;101625.50;;;-4.45;61.53
34674;BME280;20879;55.668;37.858;2023-03-18T03:20:46;101617.69;;;-4.48;62.06
34674;BME280;20879;55.668;37.858;2023-03-18T03:23:16;101605.41;;;-4.66;63.37
34674;BME280;20879;55.668;37.858;2023-03-18T03:25:47;101589.09;;;-4.81;63.32
34674;BME280;20879;55.668;37.858;2023-03-18T03:28:22;101615.47;;;-4.56;62.53
34674;BME280;20879;55.668;37.858;2023-03-18T03:30:54;101617.75;;;-4.59;62.83
34674;BME280;20879;55.668;37.858;2023-03-18T03:33:23;101615.00;;;-4.62;63.19
34674;BME280;20879;55.668;37.858;2023-03-18T03:36:02;101632.22;;;-4.68;63.36
34674;BME280;20879;55.668;37.858;2023-03-18T03:38:33;101630.09;;;-4.74;63.69
34674;BME280;20879;55.668;37.858;2023-03-18T03:41:02;101608.53;;;-4.80;64.08
34674;BME280;20879;55.668;37.858;2023-03-18T03:43:32;101628.06;;;-4.67;63.35
34674;BME280;20879;55.668;37.858;2023-03-18T03:46:04;101637.19;;;-4.69;64.00
34674;BME280;20879;55.668;37.858;2023-03-18T03:48:35;101627.69;;;-4.72;64.40
34674;BME280;20879;55.668;37.858;2023-03-18T03:51:09;101633.63;;;-4.71;64.24
34674;BME280;20879;55.668;37.858;2023-03-18T03:53:44;101633.00;;;-4.69;64.30
34674;BME280;20879;55.668;37.858;2023-03-18T03:56:14;101636.31;;;-4.70;64.64
34674;BME280;20879;55.668;37.858;2023-03-18T03:58:43;101629.72;;;-4.68;64.27
34674;BME280;20879;55.668;37.858;2023-03-18T04:01:21;101632.13;;;-4.69;65.09
34674;BME280;20879;55.668;37.858;2023-03-18T04:04:08;101636.31;;;-4.70;64.65
34674;BME280;20879;55.668;37.858;2023-03-18T04:06:37;101585.13;;;-5.00;64.81
34674;BME280;20879;55.668;37.858;2023-03-18T04:09:07;101641.81;;;-4.64;64.37
34674;BME280;20879;55.668;37.858;2023-03-18T04:11:41;101641.75;;;-4.76;65.56
34674;BME280;20879;55.668;37.858;2023-03-18T04:14:16;101642.75;;;-4.74;66.11
34674;BME280;20879;55.668;37.858;2023-03-18T04:16:48;101647.44;;;-4.78;66.48
34674;BME280;20879;55.668;37.858;2023-03-18T04:19:17;101648.44;;;-4.76;66.54
34674;BME280;20879;55.668;37.858;2023-03-18T04:21:46;101645.63;;;-4.69;66.06
34674;BME280;20879;55.668;37.858;2023-03-18T04:24:16;101647.16;;;-4.71;66.36
34674;BME280;20879;55.668;37.858;2023-03-18T04:26:46;101659.41;;;-4.65;65.74
34674;BME280;20879;55.668;37.858;2023-03-18T04:29:15;101632.53;;;-4.75;66.36
34674;BME280;20879;55.668;37.858;2023-03-18T04:31:44;101658.56;;;-4.54;66.02
34674;BME280;20879;55.668;37.858;2023-03-18T04:34:22;101606.78;;;-4.81;66.17
34674;BME280;20879;55.668;37.858;2023-03-18T04:36:52;101651.34;;;-4.49;65.40
34674;BME280;20879;55.668;37.858;2023-03-18T04:39:23;101659.09;;;-4.36;65.46
34674;BME280;20879;55.668;37.858;2023-03-18T04:41:58;101658.69;;;-4.30;65.21
34674;BME280;20879;55.668;37.858;2023-03-18T04:44:28;101665.19;;;-4.22;65.08
34674;BME280;20879;55.668;37.858;2023-03-18T04:46:59;101653.69;;;-4.18;64.71
34674;BME280;20879;55.668;37.858;2023-03-18T04:49:33;101666.03;;;-4.11;64.52
34674;BME280;20879;55.668;37.858;2023-03-18T04:52:08;101635.47;;;-4.25;64.50
34674;BME280;20879;55.668;37.858;2023-03-18T04:54:38;101663.94;;;-4.05;64.17
34674;BME280;20879;55.668;37.858;2023-03-18T04:57:14;101670.13;;;-3.90;63.93
34674;BME280;20879;55.668;37.858;2023-03-18T04:59:50;101678.41;;;-3.92;63.85
34674;BME280;20879;55.668;37.858;2023-03-18T05:02:20;101675.13;;;-3.79;63.37
34674;BME280;20879;55.668;37.858;2023-03-18T05:04:51;101665.88;;;-3.79;63.82
34674;BME280;20879;55.668;37.858;2023-03-18T05:07:20;101658.53;;;-3.76;63.14
34674;BME280;20879;55.668;37.858;2023-03-18T05:09:58;101678.47;;;-3.69;62.78
34674;BME280;20879;55.668;37.858;2023-03-18T05:12:29;101685.84;;;-3.60;63.04
34674;BME280;20879;55.668;37.858;2023-03-18T05:14:58;101682.41;;;-3.60;62.72
34674;BME280;20879;55.668;37.858;2023-03-18T05:17:29;101676.69;;;-3.58;62.72
34674;BME280;20879;55.668;37.858;2023-03-18T05:20:06;101660.50;;;-3.72;62.50
34674;BME280;20879;55.668;37.858;2023-03-18T05:22:37;101688.41;;;-3.48;62.49
34674;BME280;20879;55.668;37.858;2023-03-18T05:25:31;101686.09;;;-3.45;62.14
34674;BME280;20879;55.668;37.858;2023-03-18T05:28:01;101687.19;;;-3.41;62.35
34674;BME280;20879;55.668;37.858;2023-03-18T05:30:40;101682.69;;;-3.45;62.09
34674;BME280;20879;55.668;37.858;2023-03-18T05:33:13;101688.41;;;-3.36;61.76
34674;BME280;20879;55.668;37.858;2023-03-18T05:35:57;101693.38;;;-3.26;61.36
34674;BME280;20879;55.668;37.858;2023-03-18T05:38:37;101673.00;;;-3.39;61.83
34674;BME280;20879;55.668;37.858;2023-03-18T05:41:07;101697.47;;;-3.16;61.55
34674;BME280;20879;55.668;37.858;2023-03-18T05:43:40;101687.22;;;-3.18;60.90
34674;BME280;20879;55.668;37.858;2023-03-18T05:46:15;101650.53;;;-3.46;61.50
34674;BME280;20879;55.668;37.858;2023-03-18T05:49:10;101689.06;;;-3.15;61.30
34674;BME280;20879;55.668;37.858;2023-03-18T05:51:54;101684.91;;;-3.14;61.63
34674;BME280;20879;55.668;37.858;2023-03-18T05:54:34;101693.69;;;-2.97;61.04
34674;BME280;20879;55.668;37.858;2023-03-18T05:57:03;101695.25;;;-3.11;61.00
34674;BME280;20879;55.668;37.858;2023-03-18T05:59:33;101682.25;;;-3.16;60.82
34674;BME280;20879;55.668;37.858;2023-03-18T06:02:08;101684.88;;;-3.03;60.72
34674;BME280;20879;55.668;37.858;2023-03-18T06:04:43;101705.06;;;-2.92;59.97
34674;BME280;20879;55.668;37.858;2023-03-18T06:07:20;101700.75;;;-2.93;59.80
34674;BME280;20879;55.668;37.858;2023-03-18T06:09:55;101692.16;;;-2.95;59.68
34674;BME280;20879;55.668;37.858;2023-03-18T06:12:24;101690.59;;;-2.82;59.71
34674;BME280;20879;55.668;37.858;2023-03-18T06:14:56;101694.44;;;-2.75;59.66
34674;BME280;20879;55.668;37.858;2023-03-18T06:17:25;101697.84;;;-2.63;59.61
34674;BME280;20879;55.668;37.858;2023-03-18T06:19:55;101704.44;;;-2.53;59.13
34674;BME280;20879;55.668;37.858;2023-03-18T06:25:09;101702.22;;;-2.48;59.06
34674;BME280;20879;55.668;37.858;2023-03-18T06:27:38;101707.91;;;-2.39;58.19
34674;BME280;20879;55.668;37.858;2023-03-18T06:30:09;101706.34;;;-2.25;57.87
34674;BME280;20879;55.668;37.858;2023-03-18T06:32:40;101701.47;;;-2.22;57.75
34674;BME280;20879;55.668;37.858;2023-03-18T06:35:09;101710.72;;;-2.11;57.37
34674;BME280;20879;55.668;37.858;2023-03-18T06:37:39;101709.84;;;-2.23;56.55
34674;BME280;20879;55.668;37.858;2023-03-18T06:40:11;101695.44;;;-2.24;56.18
34674;BME280;20879;55.668;37.858;2023-03-18T06:42:41;101699.59;;;-2.24;55.32
34674;BME280;20879;55.668;37.858;2023-03-18T06:45:18;101712.94;;;-1.90;54.94
34674;BME280;20879;55.668;37.858;2023-03-18T06:47:58;101723.00;;;-1.91;55.37
34674;BME280;20879;55.668;37.858;2023-03-18T06:50:31;101712.84;;;-1.91;55.63
34674;BME280;20879;55.668;37.858;2023-03-18T06:53:01;101718.81;;;-1.78;56.08
34674;BME280;20879;55.668;37.858;2023-03-18T06:55:49;101715.38;;;-1.53;55.13
34674;BME280;20879;55.668;37.858;2023-03-18T06:58:23;101720.38;;;-1.28;55.09
34674;BME280;20879;55.668;37.858;2023-03-18T07:01:00;101712.47;;;-1.06;54.76
34674;BME280;20879;55.668;37.858;2023-03-18T07:03:40;101691.47;;;-1.30;54.04
34674;BME280;20879;55.668;37.858;2023-03-18T07:06:11;101716.22;;;-1.27;54.54
34674;BME280;20879;55.668;37.858;2023-03-18T07:08:42;101676.13;;;-1.45;54.42
34674;BME280;20879;55.668;37.858;2023-03-18T07:11:14;101714.34;;;-1.16;54.44
34674;BME280;20879;55.668;37.858;2023-03-18T07:13:44;101711.31;;;-1.24;54.22
34674;BME280;20879;55.668;37.858;2023-03-18T07:16:23;101709.53;;;-1.38;54.08
34674;BME280;20879;55.668;37.858;2023-03-18T07:18:53;101715.91;;;-1.32;53.19
34674;BME280;20879;55.668;37.858;2023-03-18T07:21:24;101710.69;;;-1.33;53.75
34674;BME280;20879;55.668;37.858;2023-03-18T07:23:56;101684.13;;;-1.52;53.15
34674;BME280;20879;55.668;37.858;2023-03-18T07:26:31;101717.56;;;-1.32;52.90
34674;BME280;20879;55.668;37.858;2023-03-18T07:29:05;101720.69;;;-1.23;52.55
34674;BME280;20879;55.668;37.858;2023-03-18T07:31:35;101702.78;;;-1.25;53.20
34674;BME280;20879;55.668;37.858;2023-03-18T07:34:04;101718.56;;;-1.17;52.45
34674;BME280;20879;55.668;37.858;2023-03-18T07:36:35;101724.81;;;-1.12;50.63
34674;BME280;20879;55.668;37.858;2023-03-18T07:39:05;101717.56;;;-1.06;49.93
34674;BME280;20879;55.668;37.858;2023-03-18T07:41:42;101712.28;;;-0.95;49.91
34674;BME280;20879;55.668;37.858;2023-03-18T07:44:23;101709.97;;;-0.92;50.63
34674;BME280;20879;55.668;37.858;2023-03-18T07:46:58;101715.22;;;-0.76;50.79
34674;BME280;20879;55.668;37.858;2023-03-18T07:49:32;101708.84;;;-0.69;50.66
34674;BME280;20879;55.668;37.858;2023-03-18T07:52:07;101709.75;;;-0.68;50.56
34674;BME280;20879;55.668;37.858;2023-03-18T07:54:36;101715.19;;;-0.62;49.77
34674;BME280;20879;55.668;37.858;2023-03-18T07:57:09;101702.69;;;-0.73;49.75
34674;BME280;20879;55.668;37.858;2023-03-18T07:59:38;101708.72;;;-0.57;48.83
34674;BME280;20879;55.668;37.858;2023-03-18T08:02:10;101714.34;;;-0.63;48.79
34674;BME280;20879;55.668;37.858;2023-03-18T08:04:41;101699.44;;;-0.57;49.04
34674;BME280;20879;55.668;37.858;2023-03-18T08:07:17;101719.84;;;-0.42;48.48
34674;BME280;20879;55.668;37.858;2023-03-18T08:09:46;101707.31;;;-0.39;48.01
34674;BME280;20879;55.668;37.858;2023-03-18T08:12:18;101715.13;;;-0.36;47.29
34674;BME280;20879;55.668;37.858;2023-03-18T08:14:48;101708.66;;;-0.30;46.38
34674;BME280;20879;55.668;37.858;2023-03-18T08:17:18;101708.63;;;-0.17;46.69
34674;BME280;20879;55.668;37.858;2023-03-18T08:19:47;101728.75;;;-0.07;47.25
34674;BME280;20879;55.668;37.858;2023-03-18T08:22:16;101714.03;;;0.03;45.61
34674;BME280;20879;55.668;37.858;2023-03-18T08:24:52;101716.94;;;0.09;44.79
34674;BME280;20879;55.668;37.858;2023-03-18T08:27:25;101719.78;;;0.13;44.45
34674;BME280;20879;55.668;37.858;2023-03-18T08:30:00;101716.41;;;0.14;43.71
34674;BME280;20879;55.668;37.858;2023-03-18T08:32:30;101704.09;;;0.07;42.87
34674;BME280;20879;55.668;37.858;2023-03-18T08:35:00;101686.50;;;-0.03;42.38
34674;BME280;20879;55.668;37.858;2023-03-18T08:37:37;101709.06;;;0.19;41.80
34674;BME280;20879;55.668;37.858;2023-03-18T08:40:07;101674.25;;;0.05;42.37
34674;BME280;20879;55.668;37.858;2023-03-18T08:42:40;101702.03;;;0.30;41.70
34674;BME280;20879;55.668;37.858;2023-03-18T08:45:11;101705.63;;;0.33;41.55
34674;BME280;20879;55.668;37.858;2023-03-18T08:47:41;101707.41;;;0.34;41.65
34674;BME280;20879;55.668;37.858;2023-03-18T08:50:11;101709.53;;;0.42;40.99
34674;BME280;20879;55.668;37.858;2023-03-18T08:52:41;101708.22;;;0.48;39.92
34674;BME280;20879;55.668;37.858;2023-03-18T08:55:10;101704.06;;;0.50;38.89
34674;BME280;20879;55.668;37.858;2023-03-18T08:57:41;101681.56;;;0.43;38.17
34674;BME280;20879;55.668;37.858;2023-03-18T09:00:12;101685.78;;;0.58;38.56
34674;BME280;20879;55.668;37.858;2023-03-18T09:02:41;101691.75;;;0.58;36.28
34674;BME280;20879;55.668;37.858;2023-03-18T09:05:11;101673.31;;;0.62;35.23
34674;BME280;20879;55.668;37.858;2023-03-18T09:07:40;101690.19;;;0.75;36.19
34674;BME280;20879;55.668;37.858;2023-03-18T09:10:14;101694.00;;;0.83;34.93
34674;BME280;20879;55.668;37.858;2023-03-18T09:12:46;101690.44;;;0.80;34.57
34674;BME280;20879;55.668;37.858;2023-03-18T09:15:22;101684.72;;;0.84;34.02
34674;BME280;20879;55.668;37.858;2023-03-18T09:17:53;101674.69;;;0.87;34.66
34674;BME280;20879;55.668;37.858;2023-03-18T09:20:43;101675.53;;;0.87;33.88
34674;BME280;20879;55.668;37.858;2023-03-18T09:23:18;101674.59;;;0.85;33.65
34674;BME280;20879;55.668;37.858;2023-03-18T09:25:49;101677.41;;;0.90;34.02
34674;BME280;20879;55.668;37.858;2023-03-18T09:28:22;101685.53;;;0.99;34.00
34674;BME280;20879;55.668;37.858;2023-03-18T09:30:52;101660.72;;;1.12;33.14
34674;BME280;20879;55.668;37.858;2023-03-18T09:33:22;101648.59;;;1.08;33.47
34674;BME280;20879;55.668;37.858;2023-03-18T09:35:52;101658.25;;;1.13;32.76
34674;BME280;20879;55.668;37.858;2023-03-18T09:38:27;101679.38;;;1.11;32.87
34674;BME280;20879;55.668;37.858;2023-03-18T09:41:06;101656.31;;;1.09;33.41
34674;BME280;20879;55.668;37.858;2023-03-18T09:43:53;101662.56;;;1.14;32.71
34674;BME280;20879;55.668;37.858;2023-03-18T09:46:36;101646.38;;;1.14;33.26
34674;BME280;20879;55.668;37.858;2023-03-18T09:49:31;101654.03;;;1.30;33.24
34674;BME280;20879;55.668;37.858;2023-03-18T09:52:17;101631.00;;;1.29;33.23
34674;BME280;20879;55.668;37.858;2023-03-18T09:54:52;101647.38;;;1.32;32.61
34674;BME280;20879;55.668;37.858;2023-03-18T09:57:33;101644.41;;;1.41;33.13
34674;BME280;20879;55.668;37.858;2023-03-18T10:00:17;101627.66;;;1.30;33.06
34674;BME280;20879;55.668;37.858;2023-03-18T10:02:49;101647.06;;;1.43;33.52
34674;BME280;20879;55.668;37.858;2023-03-18T10:05:24;101629.34;;;1.46;32.81
34674;BME280;20879;55.668;37.858;2023-03-18T10:07:59;101576.13;;;1.04;33.06
34674;BME280;20879;55.668;37.858;2023-03-18T10:10:37;101634.44;;;1.46;33.71
34674;BME280;20879;55.668;37.858;2023-03-18T10:13:13;101630.69;;;1.39;33.11
34674;BME280;20879;55.668;37.858;2023-03-18T10:15:49;101632.38;;;1.38;33.61
34674;BME280;20879;55.668;37.858;2023-03-18T10:18:29;101624.72;;;1.38;33.91
34674;BME280;20879;55.668;37.858;2023-03-18T10:21:10;101606.53;;;1.49;33.27
34674;BME280;20879;55.668;37.858;2023-03-18T10:23:59;101631.56;;;1.56;33.97
34674;BME280;20879;55.668;37.858;2023-03-18T10:26:40;101623.28;;;1.60;34.62
34674;BME280;20879;55.668;37.858;2023-03-18T10:29:22;101625.34;;;1.84;34.63
34674;BME280;20879;55.668;37.858;2023-03-18T10:32:05;101603.97;;;1.82;34.07
34674;BME280;20879;55.668;37.858;2023-03-18T10:37:37;101599.00;;;1.68;32.47
34674;BME280;20879;55.668;37.858;2023-03-18T10:40:13;101614.97;;;1.81;33.00
34674;BME280;20879;55.668;37.858;2023-03-18T10:42:44;101604.13;;;1.85;32.51
34674;BME280;20879;55.668;37.858;2023-03-18T10:45:21;101600.25;;;1.93;32.82
34674;BME280;20879;55.668;37.858;2023-03-18T10:47:59;101584.34;;;1.99;32.70
34674;BME280;20879;55.668;37.858;2023-03-18T10:50:34;101582.69;;;1.83;32.66
34674;BME280;20879;55.668;37.858;2023-03-18T10:53:12;101582.63;;;1.98;32.09
34674;BME280;20879;55.668;37.858;2023-03-18T10:55:49;101582.03;;;2.03;32.98
34674;BME280;20879;55.668;37.858;2023-03-18T10:58:28;101597.75;;;2.11;32.42
34674;BME280;20879;55.668;37.858;2023-03-18T11:00:58;101577.66;;;2.19;32.43
34674;BME280;20879;55.668;37.858;2023-03-18T11:03:32;101577.81;;;2.04;32.13
34674;BME280;20879;55.668;37.858;2023-03-18T11:06:15;101591.41;;;2.21;31.60
34674;BME280;20879;55.668;37.858;2023-03-18T11:08:46;101544.03;;;1.93;30.81
34674;BME280;20879;55.668;37.858;2023-03-18T11:11:21;101570.34;;;2.08;30.99
34674;BME280;20879;55.668;37.858;2023-03-18T11:13:55;101574.47;;;2.23;31.28
34674;BME280;20879;55.668;37.858;2023-03-18T11:16:27;101589.16;;;2.45;30.66
34674;BME280;20879;55.668;37.858;2023-03-18T11:19:06;101589.31;;;2.30;29.85
34674;BME280;20879;55.668;37.858;2023-03-18T11:21:36;101576.53;;;2.30;28.92
34674;BME280;20879;55.668;37.858;2023-03-18T11:24:23;101571.56;;;2.33;30.07
34674;BME280;20879;55.668;37.858;2023-03-18T11:27:03;101557.72;;;2.30;30.18
34674;BME280;20879;55.668;37.858;2023-03-18T11:29:40;101538.22;;;2.14;30.04
34674;BME280;20879;55.668;37.858;2023-03-18T11:32:23;101573.47;;;2.37;30.17
34674;BME280;20879;55.668;37.858;2023-03-18T11:35:15;101575.47;;;2.44;30.10
34674;BME280;20879;55.668;37.858;2023-03-18T11:37:46;101565.44;;;2.48;30.32
34674;BME280;20879;55.668;37.858;2023-03-18T11:40:25;101563.00;;;2.51;29.30
34674;BME280;20879;55.668;37.858;2023-03-18T11:42:58;101559.63;;;2.52;29.67
34674;BME280;20879;55.668;37.858;2023-03-18T11:45:44;101544.53;;;2.56;29.25
34674;BME280;20879;55.668;37.858;2023-03-18T11:48:17;101546.28;;;2.39;29.11
34674;BME280;20879;55.668;37.858;2023-03-18T11:51:05;101543.00;;;2.42;30.00
34674;BME280;20879;55.668;37.858;2023-03-18T11:53:45;101557.59;;;2.44;30.03
34674;BME280;20879;55.668;37.858;2023-03-18T11:56:23;101553.94;;;2.39;29.36
34674;BME280;20879;55.668;37.858;2023-03-18T12:08:12;101542.09;;;2.41;27.12
34674;BME280;20879;55.668;37.858;2023-03-18T12:10:54;101542.97;;;2.60;28.12
34674;BME280;20879;55.668;37.858;2023-03-18T12:13:38;101533.63;;;2.42;27.69
34674;BME280;20879;55.668;37.858;2023-03-18T12:16:23;101551.94;;;2.52;28.37
34674;BME280;20879;55.668;37.858;2023-03-18T12:19:05;101554.75;;;2.56;28.77
34674;BME280;20879;55.668;37.858;2023-03-18T12:22:07;101542.75;;;2.55;28.84
34674;BME280;20879;55.668;37.858;2023-03-18T12:25:10;101527.59;;;2.40;27.98
34674;BME280;20879;55.668;37.858;2023-03-18T12:27:50;101530.47;;;2.66;29.14
34674;BME280;20879;55.668;37.858;2023-03-18T12:30:42;101519.94;;;2.60;27.86
34674;BME280;20879;55.668;37.858;2023-03-18T12:33:32;101511.72;;;2.48;27.08
34674;BME280;20879;55.668;37.858;2023-03-18T12:36:16;101512.28;;;2.60;27.71
34674;BME280;20879;55.668;37.858;2023-03-18T12:39:19;101501.13;;;2.58;27.15
34674;BME280;20879;55.668;37.858;2023-03-18T12:42:01;101514.69;;;2.57;27.75
34674;BME280;20879;55.668;37.858;2023-03-18T12:44:42;101489.25;;;2.60;26.20
34674;BME280;20879;55.668;37.858;2023-03-18T12:52:44;101493.25;;;2.35;26.88
34674;BME280;20879;55.668;37.858;2023-03-18T12:55:24;101473.97;;;2.42;26.56
34674;BME280;20879;55.668;37.858;2023-03-18T12:58:03;101521.44;;;2.55;27.41
34674;BME280;20879;55.668;37.858;2023-03-18T13:00:44;101509.84;;;2.63;26.91
34674;BME280;20879;55.668;37.858;2023-03-18T13:03:30;101505.53;;;2.62;25.54
34674;BME280;20879;55.668;37.858;2023-03-18T13:06:08;101481.53;;;2.58;25.18
34674;BME280;20879;55.668;37.858;2023-03-18T13:09:06;101506.13;;;2.74;26.52
34674;BME280;20879;55.668;37.858;2023-03-18T13:11:59;101471.63;;;2.66;26.67
34674;BME280;20879;55.668;37.858;2023-03-18T13:14:39;101500.88;;;2.71;25.99
34674;BME280;20879;55.668;37.858;2023-03-18T13:17:13;101490.56;;;2.70;25.61
34674;BME280;20879;55.668;37.858;2023-03-18T13:19:44;101486.72;;;2.79;25.86
34674;BME280;20879;55.668;37.858;2023-03-18T13:22:35;101472.03;;;2.56;25.03
34674;BME280;20879;55.668;37.858;2023-03-18T13:25:23;101490.50;;;2.68;25.11
34674;BME280;20879;55.668;37.858;2023-03-18T13:28:09;101493.06;;;2.68;25.99
34674;BME280;20879;55.668;37.858;2023-03-18T13:30:56;101484.50;;;2.68;24.56
34674;BME280;20879;55.668;37.858;2023-03-18T13:36:56;101460.94;;;2.75;24.90
34674;BME280;20879;55.668;37.858;2023-03-18T13:40:14;101466.78;;;2.72;25.16
34674;BME280;20879;55.668;37.858;2023-03-18T13:42:48;101462.88;;;2.61;25.56
34674;BME280;20879;55.668;37.858;2023-03-18T13:45:24;101456.47;;;2.51;25.71
34674;BME280;20879;55.668;37.858;2023-03-18T13:48:05;101463.69;;;2.60;25.68